South Queensferry, United Kingdom
Current Conditions -  °F | °C
As of 5:50 AM on Friday 28 Nov 2014 (Local Time) from EGPH Reporting Station
Light Fog Light Fog  
Wind Chill: 36°   Ceiling: Unl
Heat Index: 36°   Visibility: 0.62mi
Dew Point: 36°   Wind: 3mph
Humidity: 100%   Direction: 240°WSW
Pressure: 29.71"   Gusts: NA
Location:  55.99°N, 3.39°W
Report Text: EGPH 280550Z 24003KT 1000 R06/0275 BCFG FEW020 02/02 Q1006
Loading
Personal Weather Stations






























Interactive Weather Map New forecast layout! Learn more

10-Day Weather Forecast

Advertisements
Track Severe Weather on mobile